sensor_id;sensor_type;location;lat;lon;timestamp;temperature;humidity
26035;DHT22;13809;48.632;11.576;2023-03-01T00:00:22;6.00;31.00
26035;DHT22;13809;48.632;11.576;2023-03-01T00:05:26;6.00;31.10
26035;DHT22;13809;48.632;11.576;2023-03-01T00:10:29;5.90;31.00
26035;DHT22;13809;48.632;11.576;2023-03-01T00:15:33;5.90;31.10
26035;DHT22;13809;48.632;11.576;2023-03-01T00:20:40;5.80;31.20
26035;DHT22;13809;48.632;11.576;2023-03-01T00:25:43;5.80;31.20
26035;DHT22;13809;48.632;11.576;2023-03-01T00:30:48;5.80;31.40
26035;DHT22;13809;48.632;11.576;2023-03-01T00:35:51;5.80;31.40
26035;DHT22;13809;48.632;11.576;2023-03-01T00:40:54;5.70;31.30
26035;DHT22;13809;48.632;11.576;2023-03-01T00:46:02;5.70;31.30
26035;DHT22;13809;48.632;11.576;2023-03-01T00:51:07;5.60;31.50
26035;DHT22;13809;48.632;11.576;2023-03-01T00:56:12;5.60;31.20
26035;DHT22;13809;48.632;11.576;2023-03-01T01:01:19;5.60;31.20
26035;DHT22;13809;48.632;11.576;2023-03-01T01:06:25;5.50;31.40
26035;DHT22;13809;48.632;11.576;2023-03-01T01:11:29;5.50;31.30
26035;DHT22;13809;48.632;11.576;2023-03-01T01:16:34;5.50;31.40
26035;DHT22;13809;48.632;11.576;2023-03-01T01:21:37;5.40;31.30
26035;DHT22;13809;48.632;11.576;2023-03-01T01:26:40;5.40;31.50
26035;DHT22;13809;48.632;11.576;2023-03-01T01:31:45;5.30;31.40
26035;DHT22;13809;48.632;11.576;2023-03-01T01:36:49;5.30;31.70
26035;DHT22;13809;48.632;11.576;2023-03-01T01:41:52;5.30;31.70
26035;DHT22;13809;48.632;11.576;2023-03-01T01:46:59;5.20;31.60
26035;DHT22;13809;48.632;11.576;2023-03-01T01:52:08;5.20;31.90
26035;DHT22;13809;48.632;11.576;2023-03-01T01:57:16;5.10;31.90
26035;DHT22;13809;48.632;11.576;2023-03-01T02:02:22;5.10;31.90
26035;DHT22;13809;48.632;11.576;2023-03-01T02:07:26;5.10;32.00
26035;DHT22;13809;48.632;11.576;2023-03-01T02:12:29;5.10;32.00
26035;DHT22;13809;48.632;11.576;2023-03-01T02:17:34;5.00;32.00
26035;DHT22;13809;48.632;11.576;2023-03-01T02:22:38;5.00;32.10
26035;DHT22;13809;48.632;11.576;2023-03-01T02:27:48;5.00;32.10
26035;DHT22;13809;48.632;11.576;2023-03-01T02:32:56;5.00;32.30
26035;DHT22;13809;48.632;11.576;2023-03-01T02:38:07;5.00;32.20
26035;DHT22;13809;48.632;11.576;2023-03-01T02:43:12;5.00;32.20
26035;DHT22;13809;48.632;11.576;2023-03-01T02:48:17;5.00;32.00
26035;DHT22;13809;48.632;11.576;2023-03-01T02:53:25;4.90;31.90
26035;DHT22;13809;48.632;11.576;2023-03-01T02:58:30;4.90;32.00
26035;DHT22;13809;48.632;11.576;2023-03-01T03:03:35;4.90;31.80
26035;DHT22;13809;48.632;11.576;2023-03-01T03:08:38;4.80;31.90
26035;DHT22;13809;48.632;11.576;2023-03-01T03:13:41;4.80;31.80
26035;DHT22;13809;48.632;11.576;2023-03-01T03:18:51;4.70;31.70
26035;DHT22;13809;48.632;11.576;2023-03-01T03:23:54;4.70;31.90
26035;DHT22;13809;48.632;11.576;2023-03-01T03:29:00;4.70;31.80
26035;DHT22;13809;48.632;11.576;2023-03-01T03:34:04;4.80;31.90
26035;DHT22;13809;48.632;11.576;2023-03-01T03:39:09;4.60;31.90
26035;DHT22;13809;48.632;11.576;2023-03-01T03:44:12;4.60;31.90
26035;DHT22;13809;48.632;11.576;2023-03-01T03:49:17;4.70;32.00
26035;DHT22;13809;48.632;11.576;2023-03-01T03:54:20;4.60;32.00
26035;DHT22;13809;48.632;11.576;2023-03-01T03:59:23;4.60;31.90
26035;DHT22;13809;48.632;11.576;2023-03-01T04:04:27;4.60;31.80
26035;DHT22;13809;48.632;11.576;2023-03-01T04:09:30;4.60;31.90
26035;DHT22;13809;48.632;11.576;2023-03-01T04:14:34;4.50;31.80
26035;DHT22;13809;48.632;11.576;2023-03-01T04:19:38;4.50;31.80
26035;DHT22;13809;48.632;11.576;2023-03-01T04:24:41;4.50;31.90
26035;DHT22;13809;48.632;11.576;2023-03-01T04:29:45;4.50;31.80
26035;DHT22;13809;48.632;11.576;2023-03-01T04:34:49;4.50;31.80
26035;DHT22;13809;48.632;11.576;2023-03-01T04:39:52;4.40;31.80
26035;DHT22;13809;48.632;11.576;2023-03-01T04:44:55;4.30;31.80
26035;DHT22;13809;48.632;11.576;2023-03-01T04:50:00;4.30;31.90
26035;DHT22;13809;48.632;11.576;2023-03-01T04:55:03;4.20;31.90
26035;DHT22;13809;48.632;11.576;2023-03-01T05:00:10;4.20;31.90
26035;DHT22;13809;48.632;11.576;2023-03-01T05:05:29;4.20;31.90
26035;DHT22;13809;48.632;11.576;2023-03-01T05:10:35;4.20;32.20
26035;DHT22;13809;48.632;11.576;2023-03-01T05:15:40;4.10;31.90
26035;DHT22;13809;48.632;11.576;2023-03-01T05:20:44;4.10;32.00
26035;DHT22;13809;48.632;11.576;2023-03-01T05:25:49;4.00;32.10
26035;DHT22;13809;48.632;11.576;2023-03-01T05:30:54;4.00;32.10
26035;DHT22;13809;48.632;11.576;2023-03-01T05:36:00;3.90;32.00
26035;DHT22;13809;48.632;11.576;2023-03-01T05:41:03;4.00;32.10
26035;DHT22;13809;48.632;11.576;2023-03-01T05:46:06;3.90;31.90
26035;DHT22;13809;48.632;11.576;2023-03-01T05:51:15;4.00;32.00
26035;DHT22;13809;48.632;11.576;2023-03-01T05:56:19;3.80;32.00
26035;DHT22;13809;48.632;11.576;2023-03-01T06:01:24;3.70;31.90
26035;DHT22;13809;48.632;11.576;2023-03-01T06:06:28;3.70;31.90
26035;DHT22;13809;48.632;11.576;2023-03-01T06:11:34;3.70;32.20
26035;DHT22;13809;48.632;11.576;2023-03-01T06:16:37;3.60;32.00
26035;DHT22;13809;48.632;11.576;2023-03-01T06:21:41;3.50;32.10
26035;DHT22;13809;48.632;11.576;2023-03-01T06:26:44;3.60;34.50
26035;DHT22;13809;48.632;11.576;2023-03-01T06:31:47;3.60;34.30
26035;DHT22;13809;48.632;11.576;2023-03-01T06:36:52;3.70;33.30
26035;DHT22;13809;48.632;11.576;2023-03-01T06:41:55;3.80;33.00
26035;DHT22;13809;48.632;11.576;2023-03-01T06:46:58;3.80;32.70
26035;DHT22;13809;48.632;11.576;2023-03-01T06:52:03;3.80;32.50
26035;DHT22;13809;48.632;11.576;2023-03-01T06:57:06;3.70;32.60
26035;DHT22;13809;48.632;11.576;2023-03-01T07:02:10;3.70;32.60
26035;DHT22;13809;48.632;11.576;2023-03-01T07:07:15;3.60;32.60
26035;DHT22;13809;48.632;11.576;2023-03-01T07:12:19;3.60;32.70
26035;DHT22;13809;48.632;11.576;2023-03-01T07:17:22;3.60;32.70
26035;DHT22;13809;48.632;11.576;2023-03-01T07:22:27;3.60;32.80
26035;DHT22;13809;48.632;11.576;2023-03-01T07:27:30;3.60;32.90
26035;DHT22;13809;48.632;11.576;2023-03-01T07:32:33;3.60;32.90
26035;DHT22;13809;48.632;11.576;2023-03-01T07:37:38;3.60;33.00
26035;DHT22;13809;48.632;11.576;2023-03-01T07:42:41;3.70;33.10
26035;DHT22;13809;48.632;11.576;2023-03-01T07:47:44;3.60;33.10
26035;DHT22;13809;48.632;11.576;2023-03-01T07:52:49;3.70;33.20
26035;DHT22;13809;48.632;11.576;2023-03-01T07:57:53;3.70;33.60
26035;DHT22;13809;48.632;11.576;2023-03-01T08:02:59;3.80;33.60
26035;DHT22;13809;48.632;11.576;2023-03-01T08:08:04;3.80;33.70
26035;DHT22;13809;48.632;11.576;2023-03-01T08:13:07;3.90;33.90
26035;DHT22;13809;48.632;11.576;2023-03-01T08:18:11;4.10;33.80
26035;DHT22;13809;48.632;11.576;2023-03-01T08:23:15;4.10;33.70
26035;DHT22;13809;48.632;11.576;2023-03-01T08:28:18;4.40;34.00
26035;DHT22;13809;48.632;11.576;2023-03-01T08:33:21;4.60;33.90
26035;DHT22;13809;48.632;11.576;2023-03-01T08:38:26;4.70;33.70
26035;DHT22;13809;48.632;11.576;2023-03-01T08:43:30;4.90;33.70
26035;DHT22;13809;48.632;11.576;2023-03-01T08:48:33;5.20;33.70
26035;DHT22;13809;48.632;11.576;2023-03-01T08:53:38;5.40;33.40
26035;DHT22;13809;48.632;11.576;2023-03-01T08:58:43;5.60;33.30
26035;DHT22;13809;48.632;11.576;2023-03-01T09:03:47;5.80;33.30
26035;DHT22;13809;48.632;11.576;2023-03-01T09:08:52;6.00;33.30
26035;DHT22;13809;48.632;11.576;2023-03-01T09:13:56;6.20;33.00
26035;DHT22;13809;48.632;11.576;2023-03-01T09:18:59;6.40;33.00
26035;DHT22;13809;48.632;11.576;2023-03-01T09:24:04;6.50;32.80
26035;DHT22;13809;48.632;11.576;2023-03-01T09:29:07;6.70;32.70
26035;DHT22;13809;48.632;11.576;2023-03-01T09:34:12;6.90;32.50
26035;DHT22;13809;48.632;11.576;2023-03-01T09:39:19;7.10;32.50
26035;DHT22;13809;48.632;11.576;2023-03-01T09:44:33;7.30;31.90
26035;DHT22;13809;48.632;11.576;2023-03-01T09:49:40;7.40;31.00
26035;DHT22;13809;48.632;11.576;2023-03-01T09:54:54;7.50;31.40
26035;DHT22;13809;48.632;11.576;2023-03-01T10:00:13;7.70;31.30
26035;DHT22;13809;48.632;11.576;2023-03-01T10:05:29;7.90;31.00
26035;DHT22;13809;48.632;11.576;2023-03-01T10:10:38;8.10;30.60
26035;DHT22;13809;48.632;11.576;2023-03-01T10:15:45;8.20;31.40
26035;DHT22;13809;48.632;11.576;2023-03-01T10:20:53;8.30;30.40
26035;DHT22;13809;48.632;11.576;2023-03-01T10:26:14;8.40;30.30
26035;DHT22;13809;48.632;11.576;2023-03-01T10:31:24;8.50;29.10
26035;DHT22;13809;48.632;11.576;2023-03-01T10:36:33;8.60;30.10
26035;DHT22;13809;48.632;11.576;2023-03-01T10:41:51;8.60;30.10
26035;DHT22;13809;48.632;11.576;2023-03-01T10:46:59;8.70;29.90
26035;DHT22;13809;48.632;11.576;2023-03-01T10:52:17;8.90;29.80
26035;DHT22;13809;48.632;11.576;2023-03-01T10:57:37;9.00;29.60
26035;DHT22;13809;48.632;11.576;2023-03-01T11:02:43;9.20;29.30
26035;DHT22;13809;48.632;11.576;2023-03-01T11:07:50;9.20;30.10
26035;DHT22;13809;48.632;11.576;2023-03-01T11:13:06;9.30;29.80
26035;DHT22;13809;48.632;11.576;2023-03-01T11:18:20;9.40;28.70
26035;DHT22;13809;48.632;11.576;2023-03-01T11:23:39;9.40;28.80
26035;DHT22;13809;48.632;11.576;2023-03-01T11:28:49;9.50;29.70
26035;DHT22;13809;48.632;11.576;2023-03-01T11:33:57;9.60;29.30
26035;DHT22;13809;48.632;11.576;2023-03-01T11:39:10;9.80;29.50
26035;DHT22;13809;48.632;11.576;2023-03-01T11:44:19;9.90;29.50
26035;DHT22;13809;48.632;11.576;2023-03-01T11:49:59;10.00;28.40
26035;DHT22;13809;48.632;11.576;2023-03-01T11:55:20;10.00;28.30
26035;DHT22;13809;48.632;11.576;2023-03-01T12:00:41;10.10;28.40
26035;DHT22;13809;48.632;11.576;2023-03-01T12:06:19;10.10;28.00
26035;DHT22;13809;48.632;11.576;2023-03-01T12:11:36;10.20;28.50
26035;DHT22;13809;48.632;11.576;2023-03-01T12:22:37;10.30;28.00
26035;DHT22;13809;48.632;11.576;2023-03-01T12:27:55;10.40;28.00
26035;DHT22;13809;48.632;11.576;2023-03-01T12:33:17;10.40;28.00
26035;DHT22;13809;48.632;11.576;2023-03-01T12:38:32;10.40;28.00
26035;DHT22;13809;48.632;11.576;2023-03-01T12:43:51;10.50;27.90
26035;DHT22;13809;48.632;11.576;2023-03-01T12:49:04;10.60;28.10
26035;DHT22;13809;48.632;11.576;2023-03-01T12:54:15;10.70;28.20
26035;DHT22;13809;48.632;11.576;2023-03-01T12:59:23;10.70;28.30
26035;DHT22;13809;48.632;11.576;2023-03-01T13:04:38;10.80;28.40
26035;DHT22;13809;48.632;11.576;2023-03-01T13:09:52;10.80;28.10
26035;DHT22;13809;48.632;11.576;2023-03-01T13:14:57;10.80;27.80
26035;DHT22;13809;48.632;11.576;2023-03-01T13:20:00;10.80;28.70
26035;DHT22;13809;48.632;11.576;2023-03-01T13:25:18;10.90;28.90
26035;DHT22;13809;48.632;11.576;2023-03-01T13:30:42;10.90;27.80
26035;DHT22;13809;48.632;11.576;2023-03-01T13:35:45;10.80;27.30
26035;DHT22;13809;48.632;11.576;2023-03-01T13:40:59;11.00;29.00
26035;DHT22;13809;48.632;11.576;2023-03-01T13:46:09;11.00;28.20
26035;DHT22;13809;48.632;11.576;2023-03-01T13:51:13;11.20;28.00
26035;DHT22;13809;48.632;11.576;2023-03-01T13:56:21;11.20;28.60
26035;DHT22;13809;48.632;11.576;2023-03-01T14:01:28;11.20;28.00
26035;DHT22;13809;48.632;11.576;2023-03-01T14:06:33;11.30;28.30
26035;DHT22;13809;48.632;11.576;2023-03-01T14:12:05;11.30;28.40
26035;DHT22;13809;48.632;11.576;2023-03-01T14:22:58;11.40;27.80
26035;DHT22;13809;48.632;11.576;2023-03-01T14:28:14;11.40;28.20
26035;DHT22;13809;48.632;11.576;2023-03-01T14:33:21;11.50;27.80
26035;DHT22;13809;48.632;11.576;2023-03-01T14:38:32;11.50;28.10
26035;DHT22;13809;48.632;11.576;2023-03-01T14:43:41;11.50;27.80
26035;DHT22;13809;48.632;11.576;2023-03-01T14:48:49;11.50;28.20
26035;DHT22;13809;48.632;11.576;2023-03-01T14:53:52;11.50;28.00
26035;DHT22;13809;48.632;11.576;2023-03-01T14:58:59;11.50;28.30
26035;DHT22;13809;48.632;11.576;2023-03-01T15:04:02;11.60;28.10
26035;DHT22;13809;48.632;11.576;2023-03-01T15:09:06;11.60;28.50
26035;DHT22;13809;48.632;11.576;2023-03-01T15:14:29;11.70;28.50
26035;DHT22;13809;48.632;11.576;2023-03-01T15:19:41;11.70;27.70
26035;DHT22;13809;48.632;11.576;2023-03-01T15:24:47;11.80;28.30
26035;DHT22;13809;48.632;11.576;2023-03-01T15:29:54;11.80;28.20
26035;DHT22;13809;48.632;11.576;2023-03-01T15:34:59;11.70;27.90
26035;DHT22;13809;48.632;11.576;2023-03-01T15:40:16;11.70;28.20
26035;DHT22;13809;48.632;11.576;2023-03-01T15:45:24;11.70;28.20
26035;DHT22;13809;48.632;11.576;2023-03-01T15:50:30;11.70;27.90
26035;DHT22;13809;48.632;11.576;2023-03-01T15:55:34;11.70;28.20
26035;DHT22;13809;48.632;11.576;2023-03-01T16:00:39;11.70;28.10
26035;DHT22;13809;48.632;11.576;2023-03-01T16:05:59;11.60;27.80
26035;DHT22;13809;48.632;11.576;2023-03-01T16:11:03;11.60;28.10
26035;DHT22;13809;48.632;11.576;2023-03-01T16:16:10;11.50;28.00
26035;DHT22;13809;48.632;11.576;2023-03-01T16:21:21;11.50;27.80
26035;DHT22;13809;48.632;11.576;2023-03-01T16:26:26;11.40;27.90
26035;DHT22;13809;48.632;11.576;2023-03-01T16:31:31;11.40;28.00
26035;DHT22;13809;48.632;11.576;2023-03-01T16:36:35;11.30;27.90
26035;DHT22;13809;48.632;11.576;2023-03-01T16:41:38;11.20;28.00
26035;DHT22;13809;48.632;11.576;2023-03-01T16:46:43;11.10;28.10
26035;DHT22;13809;48.632;11.576;2023-03-01T16:51:46;11.00;28.00
26035;DHT22;13809;48.632;11.576;2023-03-01T16:56:49;10.80;28.20
26035;DHT22;13809;48.632;11.576;2023-03-01T17:01:54;10.70;28.20
26035;DHT22;13809;48.632;11.576;2023-03-01T17:06:57;10.60;28.50
26035;DHT22;13809;48.632;11.576;2023-03-01T17:12:00;10.60;28.50
26035;DHT22;13809;48.632;11.576;2023-03-01T17:17:04;10.40;28.50
26035;DHT22;13809;48.632;11.576;2023-03-01T17:22:08;10.40;28.60
26035;DHT22;13809;48.632;11.576;2023-03-01T17:27:11;10.30;28.50
26035;DHT22;13809;48.632;11.576;2023-03-01T17:32:16;10.20;28.50
26035;DHT22;13809;48.632;11.576;2023-03-01T17:37:19;10.10;28.40
26035;DHT22;13809;48.632;11.576;2023-03-01T17:42:22;10.00;28.30
26035;DHT22;13809;48.632;11.576;2023-03-01T17:47:27;10.00;28.30
26035;DHT22;13809;48.632;11.576;2023-03-01T17:52:30;10.00;28.30
26035;DHT22;13809;48.632;11.576;2023-03-01T17:57:33;9.90;29.00
26035;DHT22;13809;48.632;11.576;2023-03-01T18:02:38;9.90;29.00
26035;DHT22;13809;48.632;11.576;2023-03-01T18:07:41;9.90;29.00
26035;DHT22;13809;48.632;11.576;2023-03-01T18:12:44;9.90;29.00
26035;DHT22;13809;48.632;11.576;2023-03-01T18:17:49;9.80;28.90
26035;DHT22;13809;48.632;11.576;2023-03-01T18:22:52;9.80;28.90
26035;DHT22;13809;48.632;11.576;2023-03-01T18:27:55;9.70;28.90
26035;DHT22;13809;48.632;11.576;2023-03-01T18:32:59;9.60;28.80
26035;DHT22;13809;48.632;11.576;2023-03-01T18:38:03;9.50;28.70
26035;DHT22;13809;48.632;11.576;2023-03-01T18:43:06;9.40;28.90
26035;DHT22;13809;48.632;11.576;2023-03-01T18:48:11;9.30;29.00
26035;DHT22;13809;48.632;11.576;2023-03-01T18:53:15;9.20;29.10
26035;DHT22;13809;48.632;11.576;2023-03-01T18:58:18;9.10;29.10
26035;DHT22;13809;48.632;11.576;2023-03-01T19:03:22;9.00;29.30
26035;DHT22;13809;48.632;11.576;2023-03-01T19:08:25;9.00;29.30
26035;DHT22;13809;48.632;11.576;2023-03-01T19:13:29;8.90;29.30
26035;DHT22;13809;48.632;11.576;2023-03-01T19:18:34;8.80;29.30
26035;DHT22;13809;48.632;11.576;2023-03-01T19:23:38;8.70;29.40
26035;DHT22;13809;48.632;11.576;2023-03-01T19:28:41;8.60;29.40
26035;DHT22;13809;48.632;11.576;2023-03-01T19:33:46;8.60;29.40
26035;DHT22;13809;48.632;11.576;2023-03-01T19:38:50;8.50;29.50
26035;DHT22;13809;48.632;11.576;2023-03-01T19:43:54;8.40;29.50
26035;DHT22;13809;48.632;11.576;2023-03-01T19:49:00;8.40;29.60
26035;DHT22;13809;48.632;11.576;2023-03-01T19:54:04;8.30;29.70
26035;DHT22;13809;48.632;11.576;2023-03-01T19:59:07;8.20;29.60
26035;DHT22;13809;48.632;11.576;2023-03-01T20:04:12;8.20;29.70
26035;DHT22;13809;48.632;11.576;2023-03-01T20:09:16;8.20;29.80
26035;DHT22;13809;48.632;11.576;2023-03-01T20:14:23;8.10;29.70
26035;DHT22;13809;48.632;11.576;2023-03-01T20:19:27;8.10;29.60
26035;DHT22;13809;48.632;11.576;2023-03-01T20:24:31;8.00;29.70
26035;DHT22;13809;48.632;11.576;2023-03-01T20:29:34;7.90;29.60
26035;DHT22;13809;48.632;11.576;2023-03-01T20:34:39;7.80;29.60
26035;DHT22;13809;48.632;11.576;2023-03-01T20:39:42;7.70;29.80
26035;DHT22;13809;48.632;11.576;2023-03-01T20:44:45;7.70;29.80
26035;DHT22;13809;48.632;11.576;2023-03-01T20:49:51;7.60;29.90
26035;DHT22;13809;48.632;11.576;2023-03-01T20:54:54;7.60;30.00
26035;DHT22;13809;48.632;11.576;2023-03-01T20:59:57;7.50;29.90
26035;DHT22;13809;48.632;11.576;2023-03-01T21:05:01;7.40;29.80
26035;DHT22;13809;48.632;11.576;2023-03-01T21:10:05;7.40;30.00
26035;DHT22;13809;48.632;11.576;2023-03-01T21:15:09;7.30;30.00
26035;DHT22;13809;48.632;11.576;2023-03-01T21:20:30;7.30;30.20
26035;DHT22;13809;48.632;11.576;2023-03-01T21:25:33;7.20;30.20
26035;DHT22;13809;48.632;11.576;2023-03-01T21:30:36;7.20;30.20
26035;DHT22;13809;48.632;11.576;2023-03-01T21:35:41;7.20;30.40
26035;DHT22;13809;48.632;11.576;2023-03-01T21:40:44;7.20;30.40
26035;DHT22;13809;48.632;11.576;2023-03-01T21:45:47;7.10;30.40
26035;DHT22;13809;48.632;11.576;2023-03-01T21:50:55;7.10;30.40
26035;DHT22;13809;48.632;11.576;2023-03-01T21:55:58;7.10;30.90
26035;DHT22;13809;48.632;11.576;2023-03-01T22:01:06;7.00;30.50
26035;DHT22;13809;48.632;11.576;2023-03-01T22:06:14;7.00;30.60
26035;DHT22;13809;48.632;11.576;2023-03-01T22:11:21;6.90;30.60
26035;DHT22;13809;48.632;11.576;2023-03-01T22:16:26;6.90;30.50
26035;DHT22;13809;48.632;11.576;2023-03-01T22:21:31;6.80;30.50
26035;DHT22;13809;48.632;11.576;2023-03-01T22:26:35;6.80;30.60
26035;DHT22;13809;48.632;11.576;2023-03-01T22:31:39;6.80;30.80
26035;DHT22;13809;48.632;11.576;2023-03-01T22:36:47;6.70;30.60
26035;DHT22;13809;48.632;11.576;2023-03-01T22:41:52;6.70;31.00
26035;DHT22;13809;48.632;11.576;2023-03-01T22:46:55;6.70;30.70
26035;DHT22;13809;48.632;11.576;2023-03-01T22:52:00;6.70;30.60
26035;DHT22;13809;48.632;11.576;2023-03-01T22:57:03;6.60;30.80
26035;DHT22;13809;48.632;11.576;2023-03-01T23:02:06;6.60;30.80
26035;DHT22;13809;48.632;11.576;2023-03-01T23:07:11;6.60;30.90
26035;DHT22;13809;48.632;11.576;2023-03-01T23:12:14;6.50;30.90
26035;DHT22;13809;48.632;11.576;2023-03-01T23:17:17;6.40;30.70
26035;DHT22;13809;48.632;11.576;2023-03-01T23:22:21;6.30;30.70
26035;DHT22;13809;48.632;11.576;2023-03-01T23:27:24;6.30;31.00
26035;DHT22;13809;48.632;11.576;2023-03-01T23:32:31;6.30;31.00
26035;DHT22;13809;48.632;11.576;2023-03-01T23:37:40;6.20;31.00
26035;DHT22;13809;48.632;11.576;2023-03-01T23:42:43;6.20;31.10
26035;DHT22;13809;48.632;11.576;2023-03-01T23:47:46;6.10;31.10
26035;DHT22;13809;48.632;11.576;2023-03-01T23:52:51;6.10;31.10
26035;DHT22;13809;48.632;11.576;2023-03-01T23:57:54;6.10;31.60
